Time;durP1;ratioP1;P1;durP2;ratioP2;P2;SDS_P1;SDS_P2;PMS_P1;PMS_P2;Temp;Humidity;BMP_temperature;BMP_pressure;BME280_temperature;BME280_humidity;BME280_pressure;Samples;Min_cycle;Max_cycle;Signal;HPM_P1;HPM_P2
2023/09/10 00:01:38;;;;;;;10.35;9.38;;;23.50;99.90;;;;;;5056416;28;20587;-46
2023/09/10 00:04:04;;;;;;;10.13;8.93;;;23.40;99.90;;;;;;5056403;28;20326;-47
2023/09/10 00:06:32;;;;;;;10.20;9.07;;;23.50;99.90;;;;;;5054967;28;20541;-51
2023/09/10 00:08:58;;;;;;;11.43;8.85;;;23.40;99.90;;;;;;5056106;28;20171;-51
2023/09/10 00:11:25;;;;;;;12.00;9.15;;;23.40;99.90;;;;;;5056132;28;20187;-51
2023/09/10 00:13:51;;;;;;;11.00;9.90;;;23.30;99.90;;;;;;5056028;28;20252;-46
2023/09/10 00:16:17;;;;;;;14.25;9.68;;;23.30;99.90;;;;;;5055999;28;20222;-52
2023/09/10 00:18:42;;;;;;;14.38;9.27;;;23.30;99.90;;;;;;5055874;28;20555;-50
2023/09/10 00:21:08;;;;;;;15.60;9.32;;;23.20;99.90;;;;;;5055952;28;20356;-50
2023/09/10 00:23:33;;;;;;;12.48;9.77;;;23.10;99.90;;;;;;5055883;28;20277;-50
2023/09/10 00:25:59;;;;;;;10.60;9.57;;;23.20;99.90;;;;;;5055757;28;20266;-50
2023/09/10 00:28:25;;;;;;;15.32;9.40;;;23.10;99.90;;;;;;5055678;28;20609;-48
2023/09/10 00:30:54;;;;;;;10.05;9.05;;;23.10;99.90;;;;;;5055775;28;20671;-50
2023/09/10 00:33:20;;;;;;;12.73;9.57;;;23.00;99.90;;;;;;5055711;28;20225;-50
2023/09/10 00:35:45;;;;;;;11.30;9.38;;;23.00;99.90;;;;;;5055612;28;20298;-50
2023/09/10 00:38:11;;;;;;;10.48;9.45;;;23.00;99.90;;;;;;5055636;28;20639;-50
2023/09/10 00:40:37;;;;;;;10.48;8.90;;;23.00;99.90;;;;;;5055454;28;20597;-46
2023/09/10 00:43:02;;;;;;;13.20;9.68;;;23.00;99.90;;;;;;5055336;28;20209;-50
2023/09/10 00:45:30;;;;;;;10.23;9.18;;;23.00;99.90;;;;;;5055610;28;20651;-51
2023/09/10 00:47:55;;;;;;;11.75;9.35;;;22.90;99.90;;;;;;5055575;28;20207;-49
2023/09/10 00:50:22;;;;;;;11.13;10.02;;;22.80;99.90;;;;;;5055395;28;20739;-50
2023/09/10 00:52:55;;;;;;;9.90;8.88;;;22.80;99.90;;;;;;5055292;28;20172;-49
2023/09/10 00:55:22;;;;;;;10.65;9.65;;;22.70;99.90;;;;;;5055124;28;20548;-50
2023/09/10 00:57:48;;;;;;;11.07;8.90;;;22.70;99.90;;;;;;5055357;28;20167;-50
2023/09/10 01:00:15;;;;;;;13.93;10.25;;;22.70;99.90;;;;;;5055336;28;20202;-51
2023/09/10 01:02:44;;;;;;;10.85;9.45;;;22.70;99.90;;;;;;5055231;28;20164;-48
2023/09/10 01:05:11;;;;;;;10.95;9.95;;;22.70;99.90;;;;;;5055065;28;20222;-46
2023/09/10 01:07:40;;;;;;;11.68;10.38;;;22.70;99.90;;;;;;5055037;28;20215;-50
2023/09/10 01:10:07;;;;;;;12.05;10.85;;;22.80;99.90;;;;;;5054847;28;20201;-50
2023/09/10 01:13:01;;;;;;;11.68;10.32;;;22.70;99.90;;;;;;5055073;28;20309;-51
2023/09/10 01:15:31;;;;;;;11.07;10.02;;;22.70;99.90;;;;;;5055027;28;20167;-48
2023/09/10 01:18:13;;;;;;;11.65;10.52;;;22.70;99.90;;;;;;5054808;28;20171;-48
2023/09/10 01:21:06;;;;;;;11.35;9.52;;;22.70;99.90;;;;;;5054491;28;20688;-48
2023/09/10 01:23:52;;;;;;;11.75;10.13;;;22.70;99.90;;;;;;5054635;28;20556;-51
2023/09/10 01:26:18;;;;;;;12.18;10.45;;;22.70;99.90;;;;;;5054797;28;20240;-48
2023/09/10 01:28:44;;;;;;;11.50;10.30;;;22.60;99.90;;;;;;5054601;28;20254;-51
2023/09/10 01:31:10;;;;;;;11.05;9.80;;;22.60;99.90;;;;;;5054753;28;20254;-50
2023/09/10 01:33:39;;;;;;;11.13;10.02;;;22.60;99.90;;;;;;5054588;28;20206;-52
2023/09/10 01:36:41;;;;;;;11.02;9.23;;;22.50;99.90;;;;;;5054922;28;20172;-47
2023/09/10 01:39:15;;;;;;;13.73;10.05;;;22.50;99.90;;;;;;5054306;28;20171;-49
2023/09/10 01:41:45;;;;;;;12.35;11.02;;;22.40;99.90;;;;;;5054388;28;20172;-50
2023/09/10 01:44:11;;;;;;;12.07;10.35;;;22.40;99.90;;;;;;5054367;28;20238;-48
2023/09/10 01:46:39;;;;;;;11.68;10.57;;;22.40;99.90;;;;;;5054365;28;20172;-50
2023/09/10 01:49:05;;;;;;;13.68;11.02;;;22.40;99.90;;;;;;5054544;28;20316;-48
2023/09/10 01:51:31;;;;;;;10.68;9.63;;;22.40;99.90;;;;;;5053625;28;20233;-47
2023/09/10 01:53:57;;;;;;;11.18;9.98;;;22.40;99.90;;;;;;5054073;28;20175;-48
2023/09/10 01:56:23;;;;;;;16.17;10.70;;;22.40;99.90;;;;;;5054186;28;20186;-51
2023/09/10 01:58:49;;;;;;;14.00;10.48;;;22.40;99.90;;;;;;5054097;28;20207;-51
2023/09/10 02:01:14;;;;;;;13.73;9.65;;;22.40;99.90;;;;;;5054032;28;20171;-51
2023/09/10 02:03:40;;;;;;;12.50;11.20;;;22.30;99.90;;;;;;5053979;28;20675;-48
2023/09/10 02:06:06;;;;;;;11.98;10.57;;;22.30;99.90;;;;;;5053895;28;20167;-51
2023/09/10 02:08:32;;;;;;;13.05;11.50;;;22.30;99.90;;;;;;5054099;28;20533;-47
2023/09/10 02:11:02;;;;;;;13.05;11.85;;;22.30;99.90;;;;;;5054206;28;20229;-49
2023/09/10 02:13:28;;;;;;;12.48;11.20;;;22.30;99.90;;;;;;5053926;28;20179;-47
2023/09/10 02:15:54;;;;;;;12.48;11.10;;;22.30;99.90;;;;;;5053628;28;20249;-49
2023/09/10 02:18:19;;;;;;;12.30;11.10;;;22.30;99.90;;;;;;5053766;28;20179;-47
2023/09/10 02:20:45;;;;;;;14.32;12.65;;;22.30;99.90;;;;;;5053342;28;20231;-51
2023/09/10 02:23:11;;;;;;;14.60;11.32;;;22.30;99.90;;;;;;5053712;28;20310;-47
2023/09/10 02:25:36;;;;;;;12.95;11.63;;;22.30;99.90;;;;;;5053659;28;20175;-48
2023/09/10 02:28:03;;;;;;;13.93;11.98;;;22.20;99.90;;;;;;5053629;28;20186;-48
2023/09/10 02:30:29;;;;;;;11.55;10.05;;;22.20;99.90;;;;;;5053578;28;20632;-46
2023/09/10 02:32:55;;;;;;;12.18;10.93;;;22.20;99.90;;;;;;5053449;28;20182;-47
2023/09/10 02:35:21;;;;;;;13.70;11.00;;;22.20;99.90;;;;;;5053321;28;20274;-50
2023/09/10 02:37:47;;;;;;;12.40;11.20;;;22.20;99.90;;;;;;5053495;28;20302;-51
2023/09/10 02:40:12;;;;;;;13.80;11.82;;;22.10;99.90;;;;;;5053518;28;20179;-45
2023/09/10 02:42:39;;;;;;;14.32;10.93;;;22.10;99.90;;;;;;5053353;28;20179;-49
2023/09/10 02:45:06;;;;;;;12.63;11.32;;;22.10;99.90;;;;;;5053311;28;20211;-50
2023/09/10 02:47:31;;;;;;;12.88;11.48;;;22.10;99.90;;;;;;5053192;28;20186;-48
2023/09/10 02:49:57;;;;;;;12.35;11.20;;;22.10;99.90;;;;;;5053194;28;20172;-47
2023/09/10 02:52:26;;;;;;;12.52;11.05;;;22.10;99.90;;;;;;5053159;28;20179;-47
2023/09/10 02:54:51;;;;;;;13.57;11.93;;;22.00;99.90;;;;;;5053335;28;20179;-47
2023/09/10 02:57:17;;;;;;;13.68;12.25;;;22.00;99.90;;;;;;5053265;28;20171;-46
2023/09/10 02:59:43;;;;;;;14.15;12.77;;;22.00;99.90;;;;;;5053511;28;20167;-49
2023/09/10 03:02:08;;;;;;;13.88;12.55;;;22.00;99.90;;;;;;5053113;28;20233;-47
2023/09/10 03:04:34;;;;;;;15.82;13.32;;;22.00;99.90;;;;;;5051929;28;20278;-48
2023/09/10 03:07:02;;;;;;;14.07;12.82;;;22.00;99.90;;;;;;5053237;28;20179;-49
2023/09/10 03:09:28;;;;;;;13.95;12.15;;;22.00;99.90;;;;;;5053167;28;20192;-47
2023/09/10 03:12:21;;;;;;;14.70;13.18;;;21.90;99.90;;;;;;5053136;28;20171;-47
2023/09/10 03:14:46;;;;;;;13.48;11.85;;;22.00;99.90;;;;;;5053047;28;20179;-46
2023/09/10 03:17:12;;;;;;;14.75;12.27;;;21.90;99.90;;;;;;5052940;28;20685;-47
2023/09/10 03:19:38;;;;;;;13.60;12.30;;;22.00;99.90;;;;;;5052671;28;20231;-48
2023/09/10 03:22:04;;;;;;;13.38;11.98;;;21.90;99.90;;;;;;5052972;28;20199;-47
2023/09/10 03:24:33;;;;;;;13.80;12.35;;;21.90;99.90;;;;;;5052908;28;20249;-46
2023/09/10 03:26:58;;;;;;;13.02;11.77;;;21.90;99.90;;;;;;5052829;28;20255;-46
2023/09/10 03:29:24;;;;;;;14.77;12.75;;;21.90;99.90;;;;;;5052851;28;20257;-49
2023/09/10 03:31:50;;;;;;;12.95;11.60;;;21.80;99.90;;;;;;5052695;28;20692;-51
2023/09/10 03:34:15;;;;;;;12.95;11.75;;;21.80;99.90;;;;;;5053007;28;20279;-50
2023/09/10 03:36:41;;;;;;;14.35;12.85;;;21.80;99.90;;;;;;5053006;28;20254;-50
2023/09/10 03:39:07;;;;;;;15.52;14.02;;;21.80;99.90;;;;;;5052858;28;20177;-52
2023/09/10 03:41:32;;;;;;;17.05;15.35;;;21.80;99.90;;;;;;5051634;28;20298;-46
2023/09/10 03:43:59;;;;;;;17.00;15.27;;;21.80;99.90;;;;;;5052666;28;20218;-48
2023/09/10 03:46:25;;;;;;;14.95;13.38;;;21.80;99.90;;;;;;5052659;28;20187;-52
2023/09/10 03:48:51;;;;;;;14.18;12.68;;;21.80;99.90;;;;;;5052803;28;20625;-50
2023/09/10 03:51:16;;;;;;;15.57;13.70;;;21.80;99.90;;;;;;5052703;28;20179;-53
2023/09/10 03:53:42;;;;;;;14.60;13.00;;;21.80;99.90;;;;;;5052641;28;20543;-53
2023/09/10 03:56:08;;;;;;;15.13;13.23;;;21.80;99.90;;;;;;5052715;28;20195;-52
2023/09/10 03:58:34;;;;;;;16.02;13.32;;;21.80;99.90;;;;;;5052651;28;20176;-52
2023/09/10 04:00:59;;;;;;;18.42;16.48;;;21.80;99.90;;;;;;5052411;28;20210;-50
2023/09/10 04:03:26;;;;;;;14.52;13.00;;;21.80;99.90;;;;;;5052619;28;20214;-52
2023/09/10 04:05:54;;;;;;;14.40;12.98;;;21.80;99.90;;;;;;5052716;28;20274;-51
2023/09/10 04:08:20;;;;;;;14.15;12.77;;;21.80;99.90;;;;;;5052474;28;20671;-52
2023/09/10 04:10:45;;;;;;;14.07;12.52;;;21.80;99.90;;;;;;5052522;28;20172;-48
2023/09/10 04:13:11;;;;;;;13.45;12.13;;;21.70;99.90;;;;;;5052508;28;20509;-50
2023/09/10 04:15:37;;;;;;;14.25;12.65;;;21.70;99.90;;;;;;5054668;28;20646;-52
2023/09/10 04:18:07;;;;;;;13.40;11.90;;;21.70;99.90;;;;;;5056405;28;20171;-52
2023/09/10 04:20:33;;;;;;;14.63;12.02;;;21.70;99.90;;;;;;5055967;28;20227;-46
2023/09/10 04:22:59;;;;;;;13.02;11.50;;;21.70;99.90;;;;;;5056048;28;20167;-49
2023/09/10 04:25:24;;;;;;;13.48;12.13;;;21.70;99.90;;;;;;5055924;28;20175;-49
2023/09/10 04:27:50;;;;;;;14.38;12.57;;;21.60;99.90;;;;;;5055816;28;20179;-49
2023/09/10 04:30:15;;;;;;;14.88;13.27;;;21.70;99.90;;;;;;5055692;28;20178;-50
2023/09/10 04:32:41;;;;;;;13.43;11.50;;;21.60;99.90;;;;;;5055983;28;20183;-52
2023/09/10 04:35:07;;;;;;;13.43;12.02;;;21.60;99.90;;;;;;5055832;28;20278;-51
2023/09/10 04:37:34;;;;;;;12.48;11.30;;;21.60;99.90;;;;;;5055771;28;20168;-51
2023/09/10 04:40:07;;;;;;;14.30;11.77;;;21.60;99.90;;;;;;5055671;28;20172;-52
2023/09/10 04:42:33;;;;;;;14.32;11.95;;;21.60;99.90;;;;;;5055517;28;20176;-53
2023/09/10 04:44:59;;;;;;;15.18;11.38;;;21.70;99.90;;;;;;5055320;28;20207;-49
2023/09/10 04:47:25;;;;;;;13.50;12.10;;;21.60;99.90;;;;;;5055614;28;20225;-52
2023/09/10 04:49:50;;;;;;;14.23;12.10;;;21.60;99.90;;;;;;5055489;28;20636;-51
2023/09/10 04:52:16;;;;;;;15.57;12.90;;;21.70;99.90;;;;;;5055461;28;20228;-52
2023/09/10 04:54:42;;;;;;;14.15;12.52;;;21.60;99.90;;;;;;5055387;28;20236;-53
2023/09/10 04:57:11;;;;;;;13.45;12.10;;;21.70;99.90;;;;;;5055333;28;20645;-52
2023/09/10 04:59:37;;;;;;;14.07;12.05;;;21.70;99.90;;;;;;5055091;28;20230;-52
2023/09/10 05:02:04;;;;;;;15.60;12.50;;;21.70;99.90;;;;;;5055104;28;20737;-51
2023/09/10 05:04:30;;;;;;;14.05;12.60;;;21.60;99.90;;;;;;5055168;28;20207;-49
2023/09/10 05:06:56;;;;;;;13.68;12.38;;;21.70;99.90;;;;;;5055102;28;20225;-49
2023/09/10 05:09:22;;;;;;;14.55;13.02;;;21.70;99.90;;;;;;5055067;28;20168;-46
2023/09/10 05:11:48;;;;;;;14.90;13.27;;;21.70;99.90;;;;;;5055025;28;20502;-53
2023/09/10 05:14:13;;;;;;;17.58;13.30;;;21.60;99.90;;;;;;5055093;28;20601;-53
2023/09/10 05:16:39;;;;;;;14.45;13.05;;;21.70;99.90;;;;;;5054817;28;20176;-51
2023/09/10 05:19:06;;;;;;;13.20;11.95;;;21.60;99.90;;;;;;5054413;28;20187;-51
2023/09/10 05:21:31;;;;;;;15.23;12.43;;;21.60;99.90;;;;;;5053847;28;20259;-52
2023/09/10 05:23:57;;;;;;;14.38;11.73;;;21.70;99.90;;;;;;5053337;28;20238;-49
2023/09/10 05:26:22;;;;;;;14.57;12.23;;;21.70;99.90;;;;;;5052394;28;20536;-51
2023/09/10 05:28:48;;;;;;;14.05;12.60;;;21.60;99.90;;;;;;5053252;28;20176;-51
2023/09/10 05:31:14;;;;;;;13.13;11.80;;;21.70;99.90;;;;;;5053387;28;20175;-50
2023/09/10 05:33:39;;;;;;;15.00;12.20;;;21.60;99.90;;;;;;5053347;28;20183;-52
2023/09/10 05:36:05;;;;;;;13.20;11.80;;;21.60;99.90;;;;;;5053411;28;20597;-53
2023/09/10 05:38:31;;;;;;;14.65;12.38;;;21.70;99.90;;;;;;5054572;28;20167;-52
2023/09/10 05:41:04;;;;;;;15.90;12.45;;;21.60;99.90;;;;;;5054440;28;20202;-52
2023/09/10 05:43:30;;;;;;;15.00;11.55;;;21.70;99.90;;;;;;5054522;28;20211;-48
2023/09/10 05:45:56;;;;;;;14.10;12.45;;;21.70;99.90;;;;;;5054509;28;20171;-48
2023/09/10 05:48:22;;;;;;;14.30;11.43;;;21.70;99.90;;;;;;5054687;28;20168;-51
2023/09/10 05:50:48;;;;;;;15.95;12.50;;;21.70;99.90;;;;;;5054387;28;20167;-51
2023/09/10 05:53:13;;;;;;;17.95;12.15;;;21.70;99.90;;;;;;5054131;28;20595;-50
2023/09/10 05:55:41;;;;;;;12.57;11.23;;;21.70;99.90;;;;;;5052601;28;20183;-51
2023/09/10 05:58:10;;;;;;;14.57;11.77;;;21.80;99.90;;;;;;5054061;28;20176;-51
2023/09/10 06:00:36;;;;;;;13.90;11.70;;;21.70;99.90;;;;;;5073840;28;20183;-49
2023/09/10 06:03:02;;;;;;;12.73;11.40;;;21.80;99.90;;;;;;5073611;28;20174;-51
2023/09/10 06:05:27;;;;;;;13.23;11.73;;;21.80;99.90;;;;;;5055628;28;20175;-47
2023/09/10 06:07:53;;;;;;;13.18;11.35;;;21.90;99.90;;;;;;5053600;28;20206;-52
2023/09/10 06:10:23;;;;;;;12.48;11.13;;;22.00;99.90;;;;;;5050684;28;20182;-49
2023/09/10 06:13:02;;;;;;;12.40;11.10;;;22.00;99.90;;;;;;5070560;28;20188;-52
2023/09/10 06:15:33;;;;;;;13.15;11.38;;;22.10;99.90;;;;;;5072516;28;20180;-52
2023/09/10 06:18:02;;;;;;;12.23;10.23;;;22.30;99.90;;;;;;5073340;28;20531;-51
2023/09/10 06:20:28;;;;;;;11.80;10.60;;;22.40;99.90;;;;;;5073287;28;20320;-47
2023/09/10 06:22:56;;;;;;;15.27;10.75;;;22.40;99.90;;;;;;5072866;28;20599;-48
2023/09/10 06:25:23;;;;;;;12.45;10.13;;;22.40;99.90;;;;;;5073507;28;20210;-47
2023/09/10 06:27:49;;;;;;;13.02;9.70;;;22.60;99.90;;;;;;5073657;28;20177;-50
2023/09/10 06:30:15;;;;;;;11.05;9.95;;;22.60;99.90;;;;;;5073239;28;20254;-51
2023/09/10 06:32:40;;;;;;;12.77;9.40;;;22.70;99.90;;;;;;5073571;28;20171;-48
2023/09/10 06:35:06;;;;;;;11.68;9.82;;;22.70;99.90;;;;;;5073422;28;20670;-49
2023/09/10 06:37:32;;;;;;;10.43;9.43;;;22.70;99.90;;;;;;5073027;28;20254;-46
2023/09/10 06:39:58;;;;;;;17.88;9.60;;;22.80;99.90;;;;;;5073167;28;20171;-49
2023/09/10 06:42:23;;;;;;;12.07;9.77;;;22.80;99.90;;;;;;5073505;28;20179;-48
2023/09/10 06:44:49;;;;;;;11.05;8.65;;;22.90;99.90;;;;;;5073194;28;20214;-47
2023/09/10 06:47:15;;;;;;;9.43;8.18;;;23.00;99.90;;;;;;5072491;28;20624;-47
2023/09/10 06:49:40;;;;;;;11.23;8.75;;;23.00;99.90;;;;;;5071982;28;20179;-47
2023/09/10 06:52:06;;;;;;;10.32;8.20;;;23.10;99.90;;;;;;5073393;28;20231;-46
2023/09/10 06:54:32;;;;;;;11.85;9.48;;;23.10;99.90;;;;;;5073364;28;20236;-50
2023/09/10 06:57:01;;;;;;;14.10;9.18;;;23.20;99.90;;;;;;5073300;28;20179;-47
2023/09/10 06:59:27;;;;;;;12.35;8.32;;;23.30;99.90;;;;;;5073161;28;20209;-46
2023/09/10 07:01:53;;;;;;;10.43;8.90;;;23.30;99.90;;;;;;5073329;28;20166;-47
2023/09/10 07:04:20;;;;;;;13.05;8.57;;;23.40;99.90;;;;;;5072949;28;20706;-47
2023/09/10 07:06:47;;;;;;;10.43;8.52;;;23.50;99.90;;;;;;5072996;28;20190;-48
2023/09/10 07:09:15;;;;;;;10.50;9.40;;;23.40;99.90;;;;;;5073265;28;20216;-46
2023/09/10 07:11:41;;;;;;;9.43;8.10;;;23.50;99.90;;;;;;5073210;28;20178;-47
2023/09/10 07:14:07;;;;;;;10.55;7.40;;;23.60;99.90;;;;;;5073059;28;20174;-47
2023/09/10 07:16:34;;;;;;;9.50;7.30;;;23.70;99.90;;;;;;5073047;28;20228;-46
2023/09/10 07:19:00;;;;;;;9.23;8.32;;;23.70;99.90;;;;;;5073036;28;20210;-47
2023/09/10 07:21:25;;;;;;;9.20;7.28;;;23.80;99.90;;;;;;5073257;28;20234;-49
2023/09/10 07:23:51;;;;;;;10.38;7.47;;;23.90;99.90;;;;;;5073163;28;20572;-50
2023/09/10 07:26:17;;;;;;;7.72;7.03;;;24.00;99.90;;;;;;5073201;28;20571;-50
2023/09/10 07:28:42;;;;;;;7.78;7.00;;;24.00;99.90;;;;;;5073085;28;20174;-47
2023/09/10 07:31:08;;;;;;;9.30;6.97;;;24.00;99.90;;;;;;5072922;28;20171;-48
2023/09/10 07:33:34;;;;;;;12.90;6.93;;;24.20;99.90;;;;;;5072743;28;20186;-47
2023/09/10 07:35:59;;;;;;;8.18;6.75;;;24.20;99.90;;;;;;5073035;28;20179;-47
2023/09/10 07:38:25;;;;;;;9.02;7.38;;;24.30;99.90;;;;;;5072985;28;20628;-49
2023/09/10 07:40:50;;;;;;;8.75;6.57;;;24.40;99.90;;;;;;5072854;28;20175;-50
2023/09/10 07:43:16;;;;;;;8.75;7.18;;;24.40;99.90;;;;;;5072565;28;20183;-48
2023/09/10 07:45:43;;;;;;;9.65;6.45;;;24.50;99.90;;;;;;5072608;28;20182;-47
2023/09/10 07:48:09;;;;;;;6.90;6.30;;;24.70;99.90;;;;;;5072636;28;20159;-50
2023/09/10 07:50:35;;;;;;;9.77;6.65;;;24.80;99.90;;;;;;5074865;28;20611;-49
2023/09/10 07:53:00;;;;;;;10.63;6.72;;;24.90;99.90;;;;;;5076562;28;20182;-48
2023/09/10 07:55:26;;;;;;;9.30;6.35;;;25.00;99.90;;;;;;5076423;28;20166;-48
2023/09/10 07:57:52;;;;;;;7.47;6.55;;;25.00;99.90;;;;;;5076349;28;20178;-48
2023/09/10 08:00:19;;;;;;;7.25;6.18;;;25.10;99.90;;;;;;5076398;28;20170;-47
2023/09/10 08:02:46;;;;;;;9.45;6.35;;;25.10;99.90;;;;;;5076440;28;20174;-49
2023/09/10 08:05:12;;;;;;;8.40;6.38;;;25.20;99.90;;;;;;5075331;28;20331;-49
2023/09/10 08:07:37;;;;;;;9.23;5.60;;;25.20;99.90;;;;;;5075348;28;20187;-50
2023/09/10 08:10:03;;;;;;;8.90;6.13;;;25.30;99.90;;;;;;5057016;28;20180;-52
2023/09/10 08:12:29;;;;;;;9.82;6.13;;;25.40;99.90;;;;;;5055286;28;20264;-52
2023/09/10 08:14:55;;;;;;;10.55;6.25;;;25.60;99.90;;;;;;5055252;28;20194;-48
2023/09/10 08:17:21;;;;;;;8.77;6.03;;;25.60;99.90;;;;;;5055202;28;20176;-48
2023/09/10 08:19:46;;;;;;;9.25;6.38;;;25.70;99.90;;;;;;5054986;28;20227;-51
2023/09/10 08:22:12;;;;;;;10.70;6.63;;;25.80;99.90;;;;;;5055148;28;20655;-51
2023/09/10 08:24:38;;;;;;;11.90;6.43;;;25.90;99.90;;;;;;5055027;28;20294;-50
2023/09/10 08:27:03;;;;;;;8.38;6.07;;;25.80;99.90;;;;;;5054921;28;20226;-50
2023/09/10 08:29:30;;;;;;;10.75;5.85;;;25.60;99.90;;;;;;5054951;28;20195;-47
2023/09/10 08:31:56;;;;;;;7.40;5.72;;;25.70;99.90;;;;;;5054955;28;20666;-50
2023/09/10 08:34:22;;;;;;;9.68;5.65;;;25.90;99.90;;;;;;5054789;28;20191;-51
2023/09/10 08:36:48;;;;;;;7.90;5.30;;;26.00;99.90;;;;;;5055000;28;20509;-49
2023/09/10 08:39:13;;;;;;;8.25;5.30;;;26.10;99.90;;;;;;5055181;28;20261;-47
2023/09/10 08:41:57;;;;;;;9.55;6.05;;;26.20;99.90;;;;;;5054744;28;20172;-50
2023/09/10 08:44:26;;;;;;;10.63;5.32;;;26.30;99.90;;;;;;5054670;28;20278;-52
2023/09/10 08:46:55;;;;;;;7.97;5.05;;;26.40;99.90;;;;;;5054346;28;20186;-52
2023/09/10 08:49:21;;;;;;;8.50;5.45;;;26.40;99.90;;;;;;5054671;28;20203;-51
2023/09/10 08:51:47;;;;;;;5.90;4.93;;;26.50;99.90;;;;;;5054505;28;20202;-48
2023/09/10 08:54:14;;;;;;;9.40;5.30;;;26.50;99.90;;;;;;5054469;28;20179;-50
2023/09/10 08:56:41;;;;;;;7.22;5.22;;;26.50;99.90;;;;;;5054316;28;20199;-48
2023/09/10 08:59:08;;;;;;;8.90;5.78;;;26.60;99.90;;;;;;5054255;28;20182;-50
2023/09/10 09:01:35;;;;;;;9.18;5.13;;;26.50;99.90;;;;;;5052911;28;20228;-48
2023/09/10 09:04:02;;;;;;;11.38;6.15;;;26.70;99.90;;;;;;5054351;28;20742;-48
2023/09/10 09:06:31;;;;;;;7.75;5.25;;;26.80;99.90;;;;;;5054231;28;20183;-48
2023/09/10 09:08:59;;;;;;;8.18;5.70;;;26.90;99.90;;;;;;5054284;28;20167;-50
2023/09/10 09:11:27;;;;;;;9.25;5.68;;;26.80;99.90;;;;;;5053997;28;20182;-50
2023/09/10 09:13:55;;;;;;;8.60;5.40;;;26.80;99.90;;;;;;5053985;28;20179;-51
2023/09/10 09:16:21;;;;;;;7.32;5.03;;;26.90;99.90;;;;;;5053982;28;20175;-47
2023/09/10 09:18:48;;;;;;;7.95;5.10;;;27.10;99.90;;;;;;5054125;28;20263;-53
2023/09/10 09:21:21;;;;;;;7.57;5.32;;;27.20;99.90;;;;;;5053976;28;20310;-51
2023/09/10 09:23:53;;;;;;;7.78;5.13;;;27.30;99.90;;;;;;5053947;28;20238;-53
2023/09/10 09:26:21;;;;;;;7.20;5.38;;;27.30;99.90;;;;;;5053843;28;20487;-50
2023/09/10 09:28:48;;;;;;;9.95;5.70;;;27.40;99.90;;;;;;5054019;28;20171;-52
2023/09/10 09:31:14;;;;;;;7.32;5.07;;;27.50;99.90;;;;;;5053862;28;20201;-51
2023/09/10 09:33:40;;;;;;;6.65;5.35;;;27.60;99.90;;;;;;5053743;28;20211;-51
2023/09/10 09:36:09;;;;;;;6.75;5.20;;;27.60;99.90;;;;;;5053860;28;20199;-49
2023/09/10 09:38:40;;;;;;;10.68;5.22;;;27.70;99.90;;;;;;5053430;28;20174;-49
2023/09/10 09:41:06;;;;;;;9.32;4.88;;;27.70;99.90;;;;;;5053909;28;20199;-50
2023/09/10 09:43:34;;;;;;;6.75;4.47;;;27.80;99.90;;;;;;5053724;28;20276;-47
2023/09/10 09:46:00;;;;;;;6.90;5.20;;;27.90;99.90;;;;;;5053496;28;20179;-51
2023/09/10 09:48:26;;;;;;;6.00;4.63;;;28.10;99.90;;;;;;5053385;28;20378;-50
2023/09/10 09:50:51;;;;;;;6.97;4.75;;;28.20;99.90;;;;;;5053160;28;20668;-53
2023/09/10 09:53:17;;;;;;;10.07;4.85;;;28.20;99.90;;;;;;5053396;28;20171;-50
2023/09/10 09:55:44;;;;;;;5.65;4.45;;;28.30;99.90;;;;;;5053169;28;20176;-49
2023/09/10 09:58:11;;;;;;;5.50;4.40;;;28.40;99.90;;;;;;5053276;28;20175;-51
2023/09/10 10:00:37;;;;;;;9.40;4.78;;;28.40;99.90;;;;;;5053246;28;20172;-52
2023/09/10 10:03:06;;;;;;;8.68;4.70;;;28.50;99.90;;;;;;5053100;28;20178;-53
2023/09/10 10:05:35;;;;;;;7.82;4.30;;;28.70;99.90;;;;;;5053091;28;20187;-48
2023/09/10 10:08:00;;;;;;;5.95;4.30;;;28.60;99.90;;;;;;5052643;28;20179;-50
2023/09/10 10:10:26;;;;;;;10.63;4.60;;;28.70;99.90;;;;;;5053168;28;20613;-49
2023/09/10 10:12:52;;;;;;;7.07;4.72;;;28.60;99.90;;;;;;5052580;28;20171;-52
2023/09/10 10:15:19;;;;;;;8.02;4.50;;;28.70;99.90;;;;;;5053058;28;20266;-52
2023/09/10 10:17:45;;;;;;;6.60;4.28;;;28.70;99.90;;;;;;5052967;28;20279;-52
2023/09/10 10:20:13;;;;;;;6.75;4.40;;;28.90;99.90;;;;;;5052704;28;20222;-50
2023/09/10 10:22:39;;;;;;;7.18;4.38;;;28.90;99.90;;;;;;5052872;28;20655;-51
2023/09/10 10:25:06;;;;;;;7.25;4.50;;;29.00;99.90;;;;;;5052899;28;20211;-51
2023/09/10 10:27:35;;;;;;;7.80;4.53;;;28.70;99.90;;;;;;5052804;28;20640;-49
2023/09/10 10:30:02;;;;;;;10.48;4.60;;;28.90;99.90;;;;;;5052721;28;20171;-54
2023/09/10 10:32:36;;;;;;;8.38;4.40;;;29.10;99.90;;;;;;5052640;28;20175;-50
2023/09/10 10:35:05;;;;;;;9.40;4.60;;;29.10;99.90;;;;;;5052523;28;20201;-53
2023/09/10 10:37:57;;;;;;;8.50;4.68;;;29.20;99.90;;;;;;5052725;28;20183;-53
2023/09/10 10:40:37;;;;;;;11.10;4.50;;;29.30;99.90;;;;;;5052666;28;20189;-54
2023/09/10 10:43:20;;;;;;;8.75;4.78;;;29.30;99.90;;;;;;5052633;28;20163;-53
2023/09/10 10:45:48;;;;;;;7.70;4.40;;;29.30;99.90;;;;;;5052645;28;20194;-50
2023/09/10 10:48:19;;;;;;;7.68;4.05;;;29.40;99.90;;;;;;5052549;28;20254;-53
2023/09/10 10:50:46;;;;;;;14.20;4.43;;;29.50;99.90;;;;;;5052592;28;20168;-51
2023/09/10 10:53:23;;;;;;;9.23;4.30;;;29.60;99.90;;;;;;5052414;28;20179;-53
2023/09/10 10:55:52;;;;;;;6.18;4.45;;;29.50;99.90;;;;;;5052307;28;20178;-51
2023/09/10 10:58:23;;;;;;;7.55;4.47;;;29.40;99.90;;;;;;5052184;28;20179;-51
2023/09/10 11:00:53;;;;;;;7.10;4.50;;;29.60;99.90;;;;;;5052491;28;20182;-53
2023/09/10 11:03:20;;;;;;;8.65;4.53;;;29.70;99.90;;;;;;5052307;28;20564;-52
2023/09/10 11:05:57;;;;;;;7.70;3.95;;;29.70;99.90;;;;;;5052355;28;20183;-51
2023/09/10 11:08:31;;;;;;;6.35;4.18;;;29.70;99.90;;;;;;5052261;28;20547;-51
2023/09/10 11:10:57;;;;;;;7.43;4.60;;;29.80;99.90;;;;;;5052518;28;20187;-54
2023/09/10 11:13:23;;;;;;;9.63;4.50;;;29.90;99.90;;;;;;5052312;28;20185;-53
2023/09/10 11:16:04;;;;;;;5.90;4.35;;;29.90;99.90;;;;;;5052152;28;20175;-52
2023/09/10 11:18:36;;;;;;;8.48;4.35;;;30.00;99.90;;;;;;5052315;28;20254;-53
2023/09/10 11:21:02;;;;;;;6.90;4.05;;;30.00;99.90;;;;;;5051587;28;20223;-54
2023/09/10 11:23:28;;;;;;;7.07;3.88;;;30.10;99.90;;;;;;5051697;28;20610;-52
2023/09/10 11:26:13;;;;;;;6.70;4.40;;;30.10;99.90;;;;;;5053236;28;20175;-52
2023/09/10 11:28:42;;;;;;;6.30;4.20;;;30.20;99.90;;;;;;5054172;28;20182;-52
2023/09/10 11:31:33;;;;;;;6.88;4.20;;;30.20;99.90;;;;;;5054213;28;20672;-51
2023/09/10 11:34:19;;;;;;;11.13;5.30;;;30.30;99.90;;;;;;5054360;28;20179;-51
2023/09/10 11:37:04;;;;;;;7.43;4.18;;;30.20;99.90;;;;;;5053987;28;20179;-53
2023/09/10 11:39:34;;;;;;;8.52;4.03;;;30.30;99.90;;;;;;5054829;28;20171;-51
2023/09/10 11:42:02;;;;;;;9.85;4.75;;;30.30;99.90;;;;;;5055735;28;20246;-50
2023/09/10 11:44:28;;;;;;;10.35;4.45;;;30.30;99.90;;;;;;5055997;28;20207;-50
2023/09/10 11:46:54;;;;;;;8.23;4.07;;;30.20;99.90;;;;;;5055805;28;20198;-51
2023/09/10 11:49:21;;;;;;;8.20;4.28;;;30.20;99.90;;;;;;5055786;28;20266;-47
2023/09/10 11:51:57;;;;;;;5.82;3.90;;;30.20;99.90;;;;;;5055702;28;20654;-52
2023/09/10 11:54:23;;;;;;;6.35;4.32;;;30.30;99.90;;;;;;5055492;28;20651;-49
2023/09/10 11:56:56;;;;;;;7.55;4.25;;;30.30;99.90;;;;;;5055563;28;20175;-49
2023/09/10 11:59:31;;;;;;;6.93;4.25;;;30.40;99.90;;;;;;5055651;28;20695;-49
2023/09/10 12:01:58;;;;;;;6.85;4.25;;;30.30;99.90;;;;;;5055648;28;20265;-52
2023/09/10 12:04:31;;;;;;;10.18;4.35;;;30.40;99.90;;;;;;5055436;28;20227;-47
2023/09/10 12:06:57;;;;;;;6.05;4.32;;;30.40;99.90;;;;;;5055336;28;20175;-51
2023/09/10 12:09:23;;;;;;;6.47;4.38;;;30.40;99.90;;;;;;5055569;28;20272;-51
2023/09/10 12:11:52;;;;;;;6.40;4.32;;;30.30;99.90;;;;;;5055485;28;20652;-52
2023/09/10 12:14:18;;;;;;;10.38;4.28;;;30.40;99.90;;;;;;5055367;28;20634;-50
2023/09/10 12:16:43;;;;;;;8.77;4.18;;;30.60;99.90;;;;;;5055687;28;20214;-52
2023/09/10 12:19:09;;;;;;;7.82;4.30;;;30.60;99.90;;;;;;5055499;28;20183;-50
2023/09/10 12:21:35;;;;;;;6.15;3.85;;;30.60;99.90;;;;;;5054942;28;20247;-51
2023/09/10 12:24:01;;;;;;;10.48;4.13;;;30.70;99.90;;;;;;5055248;28;20261;-47
2023/09/10 12:26:27;;;;;;;9.10;4.18;;;30.70;99.90;;;;;;5055269;28;20179;-52
2023/09/10 12:28:52;;;;;;;8.25;3.90;;;30.70;99.90;;;;;;5055250;28;20504;-50
2023/09/10 12:31:19;;;;;;;7.72;3.75;;;30.80;99.90;;;;;;5055128;28;20175;-51
2023/09/10 12:33:45;;;;;;;9.50;4.50;;;30.80;99.90;;;;;;5055018;28;20251;-49
2023/09/10 12:36:11;;;;;;;5.03;3.80;;;30.90;99.90;;;;;;5054450;28;20184;-51
2023/09/10 12:38:36;;;;;;;6.18;4.03;;;30.80;99.90;;;;;;5055126;28;20183;-51